Address 0x871cc6a34b801ef2dc4c823d4d5da4dccd64f388

 
 
Txn Hash Method
Block
From
To
Value [Txn Fee]
0x0ddeb72f4e35f4736433f0774157a8919af94d95a4be1c8c155f0d4b6e5bb2070x1de9c881242329472022-01-27 17:00:001 hr 24 mins ago0x871cc6a34b801ef2dc4c823d4d5da4dccd64f388OUT 0xcf8798bbe7a51051f19b73ce7d99f661196288fe0 MATIC0.001826042129 37.668993502
0xc936e187441b66c86016add0d7612bfa62ec94ecdf1469ae4a0782f6e689c4cd0x1de9c881242318652022-01-27 16:16:242 hrs 8 mins ago0x871cc6a34b801ef2dc4c823d4d5da4dccd64f388OUT 0xd672893f1d5b4c1779ed5a8376abea8081d013ff0 MATIC0.001863249634 38.430988893
0xdfacc0c5937cb556d1ced18ae09164ad04480e8008f5b2885128a539cc188ef80x1de9c881242301592022-01-27 15:15:403 hrs 9 mins ago0x871cc6a34b801ef2dc4c823d4d5da4dccd64f388OUT 0xd672893f1d5b4c1779ed5a8376abea8081d013ff0 MATIC0.0024241550
0xa866fc734f335362f6da3968f52a0807c8a8d9d52518f07a502ea76fe6e4b1040x1de9c881242293832022-01-27 14:48:583 hrs 35 mins ago0x871cc6a34b801ef2dc4c823d4d5da4dccd64f388OUT 0xcf8798bbe7a51051f19b73ce7d99f661196288fe0 MATIC0.00193884 40
0xa261c1d78cfe1861745e852adc47577d4be327d617096f9c7978fe7bd6826f3c0x1de9c881242279542022-01-27 13:59:474 hrs 24 mins ago0x871cc6a34b801ef2dc4c823d4d5da4dccd64f388OUT 0x095a4d1b1fa8cfd4f802bdc31222b4970a8156850 MATIC0.014105934 291.000000006
0x2cd119a8f2b62cefca59bab42a7ca919f4a6af4a9e7530a9a9681a58377186990x1de9c881242272222022-01-27 13:32:314 hrs 52 mins ago0x871cc6a34b801ef2dc4c823d4d5da4dccd64f388OUT 0x10fd6824e54756f609bf08ef223e31c7e4d94e470 MATIC0.0040285 100
0x36fb3deb92d0079b285ef5c05fd8d5e83331211edf83eb95a938b5820582d5d20x1de9c881242259942022-01-27 12:50:185 hrs 34 mins ago0x871cc6a34b801ef2dc4c823d4d5da4dccd64f388OUT 0x1f60fb0ab527471ef9165e14b692a0825e2f97d50 MATIC0.001475396668 30.428706004
0x963c41bb6039646fc9e6171ae5702bc150de5ae1b1a76f6d17b98caae5ecaeb20x1de9c881242250772022-01-27 12:18:446 hrs 5 mins ago0x871cc6a34b801ef2dc4c823d4d5da4dccd64f388OUT 0xd672893f1d5b4c1779ed5a8376abea8081d013ff0 MATIC0.00121136995 30.07000002
0xd03bd6815aa4f45080059f68089830c591b2b48014fadd75224f6ab2609d24310x1de9c881242216602022-01-27 10:10:358 hrs 14 mins ago0x871cc6a34b801ef2dc4c823d4d5da4dccd64f388OUT 0x1f60fb0ab527471ef9165e14b692a0825e2f97d50 MATIC0.009306969819 43.299308284
0xce9e21f919a73ce3d8e42ce827a067ddd3d0c90f36ebcb0f258931835db9c7550x1de9c881242206342022-01-27 9:31:038 hrs 53 mins ago0x871cc6a34b801ef2dc4c823d4d5da4dccd64f388OUT 0xd672893f1d5b4c1779ed5a8376abea8081d013ff0 MATIC0.002615947802 53.964885043
0x81ba1dc3bd1e889eb736caef7742876d87dce49c7e0e2b2067afcd4f1692e21c0x1de9c881242190092022-01-27 8:30:559 hrs 53 mins ago0x871cc6a34b801ef2dc4c823d4d5da4dccd64f388OUT 0xd672893f1d5b4c1779ed5a8376abea8081d013ff0 MATIC0.00159875133
0x8c2b5f623bd1e5f83e3377e0fb193b1dba515055f0828fb2eb4ee77b686d608e0x1de9c881242168922022-01-27 7:13:4911 hrs 10 mins ago0x871cc6a34b801ef2dc4c823d4d5da4dccd64f388OUT 0xd672893f1d5b4c1779ed5a8376abea8081d013ff0 MATIC0.001304441634 32.370688493
0x01a9db541c9c41b0ad12d22b8e683f281d5460f455c7dc500db1f3136f4002080x1de9c881242126612022-01-27 4:46:1513 hrs 38 mins ago0x871cc6a34b801ef2dc4c823d4d5da4dccd64f388OUT 0x1f60fb0ab527471ef9165e14b692a0825e2f97d50 MATIC0.001458394999 30.069999999
0xafbad80fce019c7659921b61058033fdc9ef55e99b03f4eeb9a94a7d38eeea9eTransfer242071572022-01-27 1:34:3516 hrs 50 mins ago0x32887ec9cef420d4898ef1400520777dceeca158 IN 0x871cc6a34b801ef2dc4c823d4d5da4dccd64f3881.008261764407894 MATIC0.00061228989329.156661603
0x04abaec5a36d880cbc1c4d408c7fc6230c86e3780cdd3a54a2308b9c5a2de4330x1de9c881242071512022-01-27 1:34:2316 hrs 50 mins ago0x871cc6a34b801ef2dc4c823d4d5da4dccd64f388OUT 0xd672893f1d5b4c1779ed5a8376abea8081d013ff0 MATIC0.056589959427 349.542977496
0xf72f4f1cd7531e8631b4f66034b33b021ddc7f57878f2acbbac13cb4eada584bTransfer242025722022-01-26 22:53:2219 hrs 31 mins ago0x871cc6a34b801ef2dc4c823d4d5da4dccd64f388SELF0x871cc6a34b801ef2dc4c823d4d5da4dccd64f3880 MATIC0.00083659590839.837900418
0x1b69774151d4ab83fbddff49dabf1838d2e1d0d48de81f7c459c4707d2b5ab500x1de9c881242011872022-01-26 22:02:2320 hrs 22 mins ago0x871cc6a34b801ef2dc4c823d4d5da4dccd64f388OUT 0xd672893f1d5b4c1779ed5a8376abea8081d013ff0 MATIC0.00830428030538.775694595
0x89aa3d0ec736b2e57d6be55f4bdf0003c97f26b853298a4990e2c4c7b92a3acf0x1de9c881241993312022-01-26 20:56:2521 hrs 28 mins ago0x871cc6a34b801ef2dc4c823d4d5da4dccd64f388OUT 0xcf8798bbe7a51051f19b73ce7d99f661196288fe0 MATIC0.002792137075 69.309596024
0xa73dff4f634c5019213aaaf8eb96c380a0ca98a0af8c208669d45069c2a336e90x1de9c881241954572022-01-26 18:32:1623 hrs 52 mins ago0x871cc6a34b801ef2dc4c823d4d5da4dccd64f388OUT 0x1f60fb0ab527471ef9165e14b692a0825e2f97d50 MATIC0.00203729442
0x11aecc18bec17c2dfdcb0bc24951c6d3a3aa42f67e8eae2cb254a00f773f9f500x1de9c881241951352022-01-26 18:21:081 day 3 mins ago0x871cc6a34b801ef2dc4c823d4d5da4dccd64f388OUT 0x1f60fb0ab527471ef9165e14b692a0825e2f97d50 MATIC0.001647334
0xd9be8a599b00c7d1670934698e92596abfff270b34055c1c51022e7ecef6f2cf0x1de9c881241949482022-01-26 18:12:381 day 12 mins ago0x871cc6a34b801ef2dc4c823d4d5da4dccd64f388OUT 0xd672893f1d5b4c1779ed5a8376abea8081d013ff0 MATIC0.00121176279 30.070794117
0xa9ec911b4037f40b66b63f26b33ca164d40d91ac28ef8177767e82b806587c7d0x1de9c881241936202022-01-26 17:21:221 day 1 hr ago0x871cc6a34b801ef2dc4c823d4d5da4dccd64f388OUT 0x1f60fb0ab527471ef9165e14b692a0825e2f97d50 MATIC0.0019385240
0x30297cd6b42d281cf71ffd071cbbef5e2f02ce8c2e580d71b42ff25b025f6d510x1de9c881241932802022-01-26 17:09:421 day 1 hr ago0x871cc6a34b801ef2dc4c823d4d5da4dccd64f388OUT 0x1f60fb0ab527471ef9165e14b692a0825e2f97d50 MATIC0.002444850
0x15c5d019a27112bc0e8c171a7fd15dd017fd4c5539d9edc55273343826158c47Transfer241876592022-01-26 13:38:521 day 4 hrs ago0x871cc6a34b801ef2dc4c823d4d5da4dccd64f388SELF0x871cc6a34b801ef2dc4c823d4d5da4dccd64f3880 MATIC0.00063145146430.069117348
0xdb5b57d28d036d05305eda606045d45cecb9b91ee4522e4dd2cd923e66cbcf83Transfer241863482022-01-26 12:51:241 day 5 hrs ago0x871cc6a34b801ef2dc4c823d4d5da4dccd64f388SELF0x871cc6a34b801ef2dc4c823d4d5da4dccd64f3880 MATIC0.00063144227630.068679843
[ Download CSV Export 
Parent Txn Hash Block From To Value
Loading

Contract Name:
0 MATIC

Compiler Version
0

Optimization Enabled:
0 MATIC

Other Settings:
-NA-
Block Transaction Gas Used Reward
Age Block Fee Address BC Fee Address Voting Power Jailed Incoming
Block Uncle Number Difficulty Gas Used Reward
Loading
Loading
Make sure to use the "Vote Down" button for any spammy posts, and the "Vote Up" for interesting conversations.